Terminal Aerodrome Forecast
Issued by NWS Memphis, TN

Home | Current Version | Previous Version | Text Only | Print | Product List | Glossary On
Versions: 1 2 3 4 5 6 7 8 9 10 11 12 13 14 15 16 17 18 19 20 21 22 23 24 25 26 27 28 29 30 31 32 33 34
000
FTUS44 KMEG 281124
TAFMEM
TAF
KMEM 281124Z 2812/0112 06006KT P6SM BKN060 OVC250
     FM010100 07005KT P6SM SCT040 OVC060 WS020/19040KT
     FM010800 09004KT P6SM VCSH SCT025 OVC040
      TEMPO 0109/0112 BKN025=

USA.gov is the U.S. government's official web portal to all federal, state and local government web resources and services.